Time;durP1;ratioP1;P1;durP2;ratioP2;P2;SDS_P1;SDS_P2;PMS_P1;PMS_P2;Temp;Humidity;BMP_temperature;BMP_pressure;BME280_temperature;BME280_humidity;BME280_pressure;Samples;Min_cycle;Max_cycle;Signal;HPM_P1;HPM_P2
2021/12/19 00:00:10;;;;;;;;;13.00;10.75;;;;;21.63;40.00;103097.00;5008814;28;51018;-53
2021/12/19 00:03:01;;;;;;;;;14.00;12.25;;;;;21.59;39.48;103102.03;4997194;28;51073;-55
2021/12/19 00:08:28;;;;;;;;;9.25;8.75;;;;;21.53;39.43;103086.16;5014873;28;51110;-51
2021/12/19 00:10:55;;;;;;;;;12.25;10.75;;;;;21.49;39.64;103081.19;5004692;28;51139;-52
2021/12/19 00:13:23;;;;;;;;;13.50;10.00;;;;;21.46;39.72;103079.63;5008469;28;51995;-49
2021/12/19 00:15:48;;;;;;;;;9.50;9.50;;;;;21.42;39.58;103072.75;5012013;28;51321;-51
2021/12/19 00:18:13;;;;;;;;;11.50;9.75;;;;;21.40;39.59;103073.97;5008632;28;51162;-51
2021/12/19 00:20:39;;;;;;;;;12.75;11.00;;;;;21.36;40.09;103076.19;5015356;28;51285;-49
2021/12/19 00:23:04;;;;;;;;;12.50;11.25;;;;;21.33;39.59;103069.16;5008836;28;51458;-48
2021/12/19 00:25:30;;;;;;;;;12.00;10.00;;;;;21.32;40.08;103063.81;5003543;28;51447;-53
2021/12/19 00:27:55;;;;;;;;;9.50;9.50;;;;;21.28;39.62;103059.69;5010683;28;51062;-53
2021/12/19 00:30:20;;;;;;;;;14.00;10.00;;;;;21.25;39.66;103060.84;5022546;28;51097;-53
2021/12/19 00:32:46;;;;;;;;;11.25;10.50;;;;;21.23;40.25;103057.41;5021474;28;51069;-53
2021/12/19 00:35:11;;;;;;;;;10.75;8.50;;;;;21.20;40.19;103052.25;5005982;28;51064;-53
2021/12/19 00:37:37;;;;;;;;;11.00;10.00;;;;;21.18;39.74;103050.72;5002611;28;51094;-55
2021/12/19 00:40:04;;;;;;;;;12.75;8.75;;;;;21.16;39.97;103056.41;5012150;28;50999;-53
2021/12/19 00:42:34;;;;;;;;;10.25;10.25;;;;;21.14;40.22;103047.44;5009271;28;53631;-50
2021/12/19 00:45:02;;;;;;;;;12.25;11.50;;;;;21.11;39.99;103058.81;5001020;28;51194;-54
2021/12/19 00:47:29;;;;;;;;;9.25;8.75;;;;;21.10;40.15;103048.81;5002215;28;51368;-53
2021/12/19 00:49:55;;;;;;;;;11.75;9.25;;;;;21.09;39.99;103047.09;5016603;28;51221;-52
2021/12/19 00:52:21;;;;;;;;;15.50;12.00;;;;;21.07;39.77;103042.81;5018217;28;51203;-52
2021/12/19 00:54:46;;;;;;;;;9.50;9.00;;;;;21.04;39.82;103055.88;5004876;28;51126;-51
2021/12/19 00:57:11;;;;;;;;;11.25;9.25;;;;;21.02;40.28;103046.91;4998093;28;51046;-54
2021/12/19 00:59:37;;;;;;;;;11.50;11.50;;;;;21.00;39.92;103045.38;5014232;28;51080;-53
2021/12/19 01:02:02;;;;;;;;;11.00;9.00;;;;;20.99;39.95;103043.66;5014066;28;52204;-55
2021/12/19 01:04:28;;;;;;;;;10.25;9.75;;;;;20.97;39.93;103046.59;4996789;28;51150;-56
2021/12/19 01:06:53;;;;;;;;;10.75;10.50;;;;;20.95;39.93;103037.66;4995704;28;51079;-53
2021/12/19 01:09:19;;;;;;;;;9.75;9.00;;;;;20.94;39.85;103035.03;5014338;28;51345;-53
2021/12/19 01:11:48;;;;;;;;;8.75;7.75;;;;;20.93;40.13;103036.06;4997802;28;52264;-53
2021/12/19 01:14:14;;;;;;;;;12.25;10.25;;;;;20.91;39.87;103032.63;4997278;28;51232;-51
2021/12/19 01:16:40;;;;;;;;;8.00;8.00;;;;;20.89;40.40;103035.56;5007650;28;51222;-50
2021/12/19 01:19:05;;;;;;;;;10.50;7.75;;;;;20.87;40.26;103029.38;5010474;28;51069;-48
2021/12/19 01:21:31;;;;;;;;;9.00;8.00;;;;;20.85;40.08;103025.94;5015771;28;51948;-51
2021/12/19 01:23:56;;;;;;;;;9.50;8.75;;;;;20.84;39.93;103034.34;5008441;28;51195;-52
2021/12/19 01:26:22;;;;;;;;;10.00;8.00;;;;;20.83;40.35;103032.63;5011074;28;51879;-51
2021/12/19 01:28:47;;;;;;;;;11.00;8.25;;;;;20.82;40.27;103036.44;5009472;28;51417;-53
2021/12/19 01:31:13;;;;;;;;;11.50;9.00;;;;;20.80;40.34;103030.22;5016727;28;52162;-51
2021/12/19 01:33:38;;;;;;;;;10.00;9.00;;;;;20.79;40.26;103036.78;5001646;28;51013;-52
2021/12/19 01:36:05;;;;;;;;;9.75;8.00;;;;;20.78;40.47;103032.31;5006870;28;51153;-53
2021/12/19 01:38:30;;;;;;;;;7.50;7.00;;;;;20.74;40.36;103029.91;5009593;28;51427;-53
2021/12/19 01:40:57;;;;;;;;;8.00;8.00;;;;;20.74;40.36;103029.91;4999165;28;51078;-51
2021/12/19 01:43:25;;;;;;;;;6.00;6.00;;;;;20.72;40.54;103026.44;5010943;28;51107;-51
2021/12/19 01:45:52;;;;;;;;;8.00;8.00;;;;;20.71;40.42;103024.72;5005896;28;51036;-53
2021/12/19 01:48:19;;;;;;;;;6.25;6.25;;;;;20.70;40.12;103031.25;5000798;28;51156;-52
2021/12/19 01:50:44;;;;;;;;;9.25;9.00;;;;;20.69;40.48;103031.44;5006514;28;51204;-54
2021/12/19 01:53:12;;;;;;;;;10.25;9.75;;;;;20.68;40.37;103022.31;5019784;28;51158;-51
2021/12/19 01:55:39;;;;;;;;;7.00;7.00;;;;;20.65;40.27;103025.41;4996638;28;51003;-52
2021/12/19 01:58:05;;;;;;;;;9.75;9.25;;;;;20.64;40.58;103023.69;4999483;28;51050;-51
2021/12/19 02:00:34;;;;;;;;;8.75;6.25;;;;;20.62;40.10;103014.72;5016630;28;51971;-50
2021/12/19 02:03:01;;;;;;;;;7.50;7.50;;;;;20.62;40.39;103022.97;5005276;28;51399;-53
2021/12/19 02:05:27;;;;;;;;;8.00;8.00;;;;;20.61;40.84;103017.66;5002833;28;51043;-54
2021/12/19 02:07:53;;;;;;;;;7.25;7.25;;;;;20.60;40.49;103022.28;5005705;28;51280;-51
2021/12/19 02:10:21;;;;;;;;;9.25;8.25;;;;;20.58;40.27;103021.63;5015062;28;52006;-50
2021/12/19 02:12:49;;;;;;;;;7.00;5.50;;;;;20.57;40.10;103014.38;5015557;28;51340;-52
2021/12/19 02:15:18;;;;;;;;;7.25;7.25;;;;;20.57;40.23;103019.03;5007945;28;51331;-52
2021/12/19 02:17:44;;;;;;;;;8.75;5.75;;;;;20.55;40.27;103008.19;5001624;28;51190;-51
2021/12/19 02:20:12;;;;;;;;;6.00;5.50;;;;;20.54;40.38;103009.22;5010482;28;51212;-51
2021/12/19 02:22:37;;;;;;;;;5.25;4.50;;;;;20.53;40.46;103013.03;5030608;28;51360;-51
2021/12/19 02:25:03;;;;;;;;;8.00;5.50;;;;;20.52;40.77;103000.25;5000682;28;51366;-51
2021/12/19 02:27:29;;;;;;;;;10.50;7.25;;;;;20.51;40.58;102995.78;5006266;28;51190;-50
2021/12/19 02:29:58;;;;;;;;;6.00;5.75;;;;;20.51;40.51;102998.53;5009781;28;51086;-49
2021/12/19 02:32:26;;;;;;;;;8.50;6.50;;;;;20.50;40.39;102993.22;5011226;28;51672;-53
2021/12/19 02:34:54;;;;;;;;;4.75;4.50;;;;;20.48;40.72;102996.13;5002426;28;52471;-50
2021/12/19 02:48:29;;;;;;;;;5.50;4.50;;;;;20.42;40.98;102983.91;4998206;28;51290;-51
2021/12/19 02:50:55;;;;;;;;;4.00;4.00;;;;;20.41;40.36;102986.78;5015259;28;51188;-52
2021/12/19 02:53:38;;;;;;;;;4.50;4.50;;;;;20.40;40.55;102977.69;5015380;28;51255;-52
2021/12/19 02:56:06;;;;;;;;;5.50;4.25;;;;;20.39;40.83;102984.22;5014989;28;51101;-52
2021/12/19 02:58:33;;;;;;;;;5.75;4.00;;;;;20.38;40.56;102978.88;5000954;28;51846;-55
2021/12/19 03:01:03;;;;;;;;;4.50;4.50;;;;;20.38;40.92;102981.63;5002084;28;51228;-50
2021/12/19 03:03:29;;;;;;;;;5.50;5.50;;;;;20.37;40.57;102978.03;4994912;28;51442;-54
2021/12/19 03:05:54;;;;;;;;;4.75;4.50;;;;;20.37;40.53;102974.41;5000469;28;51233;-51
2021/12/19 03:08:20;;;;;;;;;7.75;5.25;;;;;20.36;40.60;102969.94;5014931;28;51166;-51
2021/12/19 03:18:40;;;;;;;;;7.00;6.00;;;;;20.32;41.04;102960.28;5012324;28;51049;-51
2021/12/19 03:21:10;;;;;;;;;6.25;4.25;;;;;20.30;40.98;102957.72;5016645;28;52123;-54
2021/12/19 03:23:35;;;;;;;;;5.00;5.00;;;;;20.29;40.57;102953.25;5000999;28;51584;-53
2021/12/19 03:26:01;;;;;;;;;6.00;5.25;;;;;20.30;40.71;102957.72;5005553;28;51380;-52
2021/12/19 03:28:26;;;;;;;;;6.00;4.25;;;;;20.29;41.09;102957.88;5002734;28;51346;-53
2021/12/19 03:30:52;;;;;;;;;4.50;4.50;;;;;20.28;40.58;102953.41;4999527;28;52016;-53
2021/12/19 03:33:19;;;;;;;;;5.00;4.25;;;;;20.28;40.82;102958.91;5015116;28;51090;-54
2021/12/19 03:35:44;;;;;;;;;5.50;4.75;;;;;20.26;40.86;102961.84;5013092;28;51485;-52
2021/12/19 03:38:13;;;;;;;;;4.50;2.00;;;;;20.26;40.58;102952.72;5012516;28;51093;-52
2021/12/19 03:40:42;;;;;;;;;4.00;3.75;;;;;20.26;40.71;102963.75;5015428;28;51183;-51
2021/12/19 03:43:15;;;;;;;;;4.50;4.00;;;;;20.24;40.72;102952.03;5017194;28;51678;-53
2021/12/19 03:45:43;;;;;;;;;4.75;3.75;;;;;20.24;40.79;102952.03;5016340;28;51113;-53
2021/12/19 03:48:12;;;;;;;;;4.50;4.50;;;;;20.23;41.19;102964.94;5015577;28;51328;-54
2021/12/19 03:50:39;;;;;;;;;5.75;4.50;;;;;20.23;40.93;102961.34;5013540;28;51135;-54
2021/12/19 03:53:05;;;;;;;;;3.50;3.50;;;;;20.21;40.83;102957.88;5017588;28;51023;-54
2021/12/19 03:55:30;;;;;;;;;5.00;4.00;;;;;20.21;40.75;102963.38;5012833;28;51308;-54
2021/12/19 03:57:58;;;;;;;;;6.50;5.00;;;;;20.19;40.64;102964.41;5016444;28;51195;-54
2021/12/19 04:00:26;;;;;;;;;5.00;5.00;;;;;20.19;40.70;102967.16;5010901;28;51955;-54
2021/12/19 04:02:57;;;;;;;;;7.00;5.00;;;;;20.18;40.92;102959.06;4998540;28;51377;-48
2021/12/19 04:05:24;;;;;;;;;4.25;4.25;;;;;20.17;40.90;102958.22;4998083;28;51081;-49
2021/12/19 04:07:49;;;;;;;;;7.50;5.00;;;;;20.16;41.04;102953.75;5003979;28;51398;-49
2021/12/19 04:10:15;;;;;;;;;4.25;4.25;;;;;20.14;40.83;102953.06;5012114;28;51328;-49
2021/12/19 04:12:42;;;;;;;;;7.00;4.00;;;;;20.14;40.67;102950.31;5000723;28;51471;-48
2021/12/19 04:15:09;;;;;;;;;8.75;5.00;;;;;20.14;40.47;102957.72;5012717;28;51116;-54
2021/12/19 04:17:35;;;;;;;;;5.50;4.50;;;;;20.12;40.72;102949.63;4997447;28;51079;-53
2021/12/19 04:20:00;;;;;;;;;5.75;4.75;;;;;20.11;40.97;102945.16;5008791;28;51741;-51
2021/12/19 04:22:26;;;;;;;;;6.50;5.25;;;;;20.11;40.95;102942.41;4997648;28;51500;-52
2021/12/19 04:24:51;;;;;;;;;4.25;4.25;;;;;20.10;40.69;102946.16;4997005;28;51102;-52
2021/12/19 04:27:16;;;;;;;;;5.25;5.25;;;;;20.08;41.01;102953.72;5021270;28;51033;-52
2021/12/19 04:29:41;;;;;;;;;5.75;4.00;;;;;20.09;40.89;102947.19;5015051;28;51773;-50
2021/12/19 04:32:08;;;;;;;;;5.00;4.00;;;;;20.09;40.93;102947.19;5013962;28;51148;-53
2021/12/19 04:34:34;;;;;;;;;3.75;3.75;;;;;20.07;40.94;102931.88;5016475;28;51093;-52
2021/12/19 04:37:08;;;;;;;;;5.50;4.00;;;;;20.06;40.70;102925.53;5010793;28;51114;-54
2021/12/19 04:39:53;;;;;;;;;4.50;4.50;;;;;20.07;40.73;102929.13;5010523;28;51216;-52
2021/12/19 04:59:37;;;;;;;;;4.00;4.00;;;;;19.99;40.81;102918.09;5014448;28;51240;-53
2021/12/19 05:02:10;;;;;;;;;4.00;2.75;;;;;19.99;41.20;102915.34;5019359;28;50970;-51
2021/12/19 05:15:34;;;;;;;;;3.50;2.75;;;;;19.95;40.95;102911.25;5005581;28;50978;-48
2021/12/19 05:18:04;;;;;;;;;3.75;2.75;;;;;19.92;41.06;102906.94;4996625;28;50985;-51
2021/12/19 05:20:31;;;;;;;;;4.75;3.00;;;;;19.93;40.80;102910.56;4997383;28;50966;-52
2021/12/19 05:23:04;;;;;;;;;7.50;4.00;;;;;19.91;41.16;102913.47;5013077;28;51025;-52
2021/12/19 05:25:30;;;;;;;;;5.00;4.50;;;;;19.91;41.05;102913.47;5020790;28;51481;-52
2021/12/19 05:27:58;;;;;;;;;4.25;3.00;;;;;19.91;41.08;102905.22;5023231;28;51693;-51
2021/12/19 05:30:24;;;;;;;;;4.50;3.00;;;;;19.89;41.21;102902.63;5000571;28;51481;-52
2021/12/19 05:32:51;;;;;;;;;3.75;3.25;;;;;19.90;41.19;102903.47;4996628;28;51955;-51
2021/12/19 05:35:31;;;;;;;;;2.00;2.00;;;;;19.89;40.88;102904.50;4998588;28;51089;-53
2021/12/19 05:46:08;;;;;;;;;3.25;3.25;;;;;19.86;40.88;102905.72;5011263;28;51444;-51
2021/12/19 05:48:33;;;;;;;;;3.75;3.75;;;;;19.85;41.19;102903.13;5014620;28;51247;-53
2021/12/19 05:51:00;;;;;;;;;3.00;2.00;;;;;19.86;41.10;102902.09;5021262;28;51178;-53
2021/12/19 05:53:26;;;;;;;;;4.75;4.00;;;;;19.85;41.11;102905.88;5008333;28;51054;-53
2021/12/19 05:55:51;;;;;;;;;5.00;4.00;;;;;19.83;41.19;102902.44;4998640;28;52764;-52
2021/12/19 05:58:16;;;;;;;;;3.00;2.75;;;;;19.83;41.28;102906.06;5006521;28;51244;-51
2021/12/19 06:00:42;;;;;;;;;4.00;3.00;;;;;19.82;41.12;102900.72;5008768;28;51050;-50
2021/12/19 06:03:07;;;;;;;;;3.25;2.50;;;;;19.81;40.80;102899.88;5004623;28;51007;-51
2021/12/19 06:05:33;;;;;;;;;6.25;3.00;;;;;19.80;41.04;102897.25;4997460;28;51018;-53
2021/12/19 06:07:58;;;;;;;;;2.50;2.50;;;;;19.80;41.19;102886.25;5004263;28;51141;-51
2021/12/19 06:10:28;;;;;;;;;5.00;3.00;;;;;19.80;40.77;102894.50;5014260;28;51177;-54
2021/12/19 06:12:53;;;;;;;;;5.00;3.25;;;;;19.79;40.98;102895.53;5013406;28;52796;-51
2021/12/19 06:15:18;;;;;;;;;3.00;1.25;;;;;19.78;41.06;102891.06;5015697;28;50997;-53
2021/12/19 06:17:47;;;;;;;;;1.75;1.75;;;;;19.77;41.05;102892.09;5004127;28;51107;-52
2021/12/19 06:20:12;;;;;;;;;2.75;2.75;;;;;19.76;40.96;102896.75;5001746;28;51041;-52
2021/12/19 06:22:39;;;;;;;;;1.50;1.50;;;;;19.77;41.47;102894.88;5006588;28;51922;-52
2021/12/19 06:25:06;;;;;;;;;3.25;3.25;;;;;19.75;40.91;102886.78;4999015;28;51175;-53
2021/12/19 06:27:31;;;;;;;;;3.50;3.00;;;;;19.75;40.97;102881.28;5019002;28;51232;-52
2021/12/19 06:29:57;;;;;;;;;2.25;1.00;;;;;19.75;40.79;102872.19;5015086;28;51116;-52
2021/12/19 06:32:22;;;;;;;;;2.00;2.00;;;;;19.74;40.99;102889.72;5004420;28;51925;-51
2021/12/19 06:34:47;;;;;;;;;3.00;2.25;;;;;19.73;41.35;102886.09;5001808;28;51024;-49
2021/12/19 06:37:13;;;;;;;;;2.00;2.00;;;;;19.72;41.40;102884.38;5008839;28;52360;-51
2021/12/19 06:39:39;;;;;;;;;5.50;3.00;;;;;19.73;40.87;102885.25;5010276;28;51090;-52
2021/12/19 06:42:07;;;;;;;;;2.25;2.00;;;;;19.73;41.21;102885.25;5005744;28;51854;-51
2021/12/19 06:44:34;;;;;;;;;2.00;2.00;;;;;19.71;40.98;102881.81;5001235;28;51304;-52
2021/12/19 06:47:01;;;;;;;;;4.25;3.25;;;;;19.70;41.12;102878.19;4998031;28;51182;-51
2021/12/19 06:49:27;;;;;;;;;3.75;2.50;;;;;19.71;40.99;102881.81;5014716;28;51152;-51
2021/12/19 06:51:53;;;;;;;;;5.00;2.00;;;;;19.70;41.08;102885.59;4996339;28;51954;-52
2021/12/19 06:54:19;;;;;;;;;3.50;3.50;;;;;19.69;41.16;102881.09;4999377;28;51023;-54
2021/12/19 06:56:44;;;;;;;;;3.00;0.75;;;;;19.68;40.91;102884.88;5005040;28;50959;-52
2021/12/19 06:59:09;;;;;;;;;3.00;2.00;;;;;19.67;40.97;102884.00;5006998;28;51171;-53
2021/12/19 07:01:39;;;;;;;;;1.75;1.75;;;;;19.66;41.15;102884.19;5010615;28;53037;-53
2021/12/19 07:04:04;;;;;;;;;4.00;2.00;;;;;19.66;41.05;102887.78;5012198;28;51160;-54
2021/12/19 07:06:29;;;;;;;;;2.00;2.00;;;;;19.65;40.95;102896.22;5015052;28;50983;-52
2021/12/19 07:08:55;;;;;;;;;3.00;3.00;;;;;19.64;40.91;102889.84;5001273;28;51114;-53
2021/12/19 07:11:21;;;;;;;;;2.75;2.00;;;;;19.64;40.99;102889.00;5003956;28;51776;-53
2021/12/19 07:13:46;;;;;;;;;3.25;2.75;;;;;19.63;41.04;102884.53;5018403;28;51118;-54
2021/12/19 07:16:12;;;;;;;;;3.00;1.50;;;;;19.63;40.92;102885.38;5010907;28;51855;-51
2021/12/19 07:18:38;;;;;;;;;1.50;1.00;;;;;19.62;40.88;102885.56;5004185;28;51050;-54
2021/12/19 07:21:05;;;;;;;;;3.50;2.50;;;;;19.63;40.94;102884.53;5001693;28;51765;-53
2021/12/19 07:23:31;;;;;;;;;2.00;2.00;;;;;19.61;40.97;102887.44;5011183;28;51084;-53
2021/12/19 07:25:56;;;;;;;;;4.00;2.00;;;;;19.61;41.34;102884.69;5019287;28;51164;-54
2021/12/19 07:28:22;;;;;;;;;2.50;2.00;;;;;19.60;41.34;102883.84;5018299;28;51382;-54
2021/12/19 07:30:48;;;;;;;;;4.00;3.00;;;;;19.60;41.35;102889.34;4998990;28;52751;-53
2021/12/19 07:33:13;;;;;;;;;2.25;2.25;;;;;19.59;41.57;102881.22;5014127;28;51070;-53
2021/12/19 07:35:42;;;;;;;;;2.00;2.00;;;;;19.58;41.62;102874.00;5017454;28;51236;-54
2021/12/19 07:38:10;;;;;;;;;1.50;1.50;;;;;19.58;41.27;102871.25;5008827;28;51066;-51
2021/12/19 07:40:36;;;;;;;;;2.00;2.00;;;;;19.58;41.43;102874.88;4999078;28;51753;-54
2021/12/19 07:43:10;;;;;;;;;4.00;1.50;;;;;19.59;41.22;102872.97;4998727;28;51238;-53
2021/12/19 07:45:36;;;;;;;;;3.50;2.25;;;;;19.61;41.35;102876.44;5005658;28;50952;-54
2021/12/19 07:48:01;;;;;;;;;3.25;2.50;;;;;19.63;41.57;102876.28;5015159;28;51078;-54
2021/12/19 07:50:27;;;;;;;;;1.00;1.00;;;;;19.69;41.40;102875.59;5002304;28;51326;-54
2021/12/19 07:52:54;;;;;;;;;1.75;1.75;;;;;19.76;41.68;102876.66;5004734;28;51098;-54
2021/12/19 07:55:20;;;;;;;;;4.00;2.00;;;;;19.82;41.79;102876.84;5014049;28;51000;-51
2021/12/19 07:57:45;;;;;;;;;3.50;2.50;;;;;19.92;41.61;102875.81;5010763;28;51180;-53
2021/12/19 08:00:13;;;;;;;;;4.25;2.00;;;;;19.99;41.82;102879.59;5014789;28;51673;-50
2021/12/19 08:02:40;;;;;;;;;2.00;2.00;;;;;20.07;41.61;102887.88;5000791;28;51520;-53
2021/12/19 08:05:06;;;;;;;;;2.00;2.00;;;;;20.12;41.63;102880.84;4998844;28;51029;-53
2021/12/19 08:07:32;;;;;;;;;4.50;1.50;;;;;20.22;41.66;102880.66;5011823;28;51253;-53
2021/12/19 08:12:49;;;;;;;;;2.50;1.75;;;;;20.39;41.82;102885.13;4996926;28;51032;-51
2021/12/19 08:15:15;;;;;;;;;1.00;1.00;;;;;20.46;41.92;102869.69;4998222;28;51243;-53
2021/12/19 08:17:41;;;;;;;;;1.00;1.00;;;;;20.54;42.01;102879.81;5011427;28;51267;-54
2021/12/19 08:20:09;;;;;;;;;1.00;1.00;;;;;20.62;42.36;102867.91;5010317;28;52005;-53
2021/12/19 08:22:35;;;;;;;;;1.00;1.00;;;;;20.69;42.16;102874.47;5001796;28;51281;-52
2021/12/19 08:25:01;;;;;;;;;2.25;0.00;;;;;20.75;42.37;102871.88;5013949;28;51105;-48
2021/12/19 08:27:26;;;;;;;;;1.25;1.25;;;;;20.84;42.22;102878.22;5011696;28;52383;-52
2021/12/19 08:29:54;;;;;;;;;0.50;0.50;;;;;20.89;41.96;102880.44;5003308;28;51120;-54
2021/12/19 08:32:20;;;;;;;;;0.00;0.00;;;;;20.89;42.05;102874.94;4997615;28;51477;-52
2021/12/19 08:34:46;;;;;;;;;2.00;2.00;;;;;20.87;42.26;102877.88;4998314;28;51155;-57
2021/12/19 08:37:11;;;;;;;;;2.25;1.00;;;;;20.84;41.86;102878.22;5006486;28;51139;-56
2021/12/19 08:39:38;;;;;;;;;2.00;1.25;;;;;20.86;42.38;102878.03;4998878;28;51911;-55
2021/12/19 08:42:06;;;;;;;;;2.25;1.00;;;;;20.91;42.48;102876.47;4996879;28;51481;-52
2021/12/19 08:44:32;;;;;;;;;2.75;2.00;;;;;20.97;42.47;102883.19;5004322;28;50983;-50
2021/12/19 08:46:57;;;;;;;;;4.00;3.75;;;;;20.99;42.21;102883.84;5008146;28;51315;-54
2021/12/19 08:49:23;;;;;;;;;3.00;2.00;;;;;20.96;41.99;102884.22;4997555;28;51849;-52
2021/12/19 08:51:48;;;;;;;;;3.00;2.75;;;;;20.91;41.92;102884.72;5012668;28;51149;-54
2021/12/19 08:54:14;;;;;;;;;3.00;2.00;;;;;20.89;41.94;102880.44;5001883;28;51575;-54
2021/12/19 08:56:39;;;;;;;;;4.00;3.25;;;;;20.89;42.03;102884.06;4999113;28;51053;-52
2021/12/19 08:59:05;;;;;;;;;2.75;2.75;;;;;20.93;41.65;102885.41;5002433;28;51072;-53
2021/12/19 09:01:32;;;;;;;;;4.75;4.00;;;;;21.00;41.70;102883.66;5003424;28;51063;-53
2021/12/19 09:03:57;;;;;;;;;3.25;3.25;;;;;21.06;41.83;102884.03;5003604;28;51031;-54
2021/12/19 09:06:23;;;;;;;;;2.75;2.00;;;;;21.11;41.94;102887.94;5005024;28;51270;-54
2021/12/19 09:08:48;;;;;;;;;4.00;2.75;;;;;21.16;41.43;102890.19;5002061;28;51032;-52
2021/12/19 09:11:14;;;;;;;;;6.00;3.00;;;;;21.18;41.38;102888.09;5003286;28;51349;-53
2021/12/19 09:13:39;;;;;;;;;7.00;4.00;;;;;21.17;41.83;102894.66;5014055;28;50999;-52
2021/12/19 09:16:05;;;;;;;;;4.00;2.00;;;;;21.14;41.47;102889.47;5013330;28;51732;-52
2021/12/19 09:18:31;;;;;;;;;5.00;3.50;;;;;21.15;41.29;102889.28;5004593;28;51207;-54
2021/12/19 09:20:56;;;;;;;;;3.00;3.00;;;;;21.17;41.45;102881.72;5001014;28;52168;-53
2021/12/19 09:23:22;;;;;;;;;3.50;2.00;;;;;21.17;41.98;102886.38;5008135;28;51148;-55
2021/12/19 09:25:48;;;;;;;;;4.50;4.50;;;;;21.14;41.85;102873.81;5013223;28;51062;-55
2021/12/19 09:28:13;;;;;;;;;5.75;3.00;;;;;21.15;41.76;102875.50;5001319;28;51993;-51
2021/12/19 09:30:42;;;;;;;;;5.00;3.00;;;;;21.19;41.73;102867.78;5011975;28;51003;-54
2021/12/19 09:33:08;;;;;;;;;2.00;2.00;;;;;21.17;42.39;102878.97;5001509;28;51097;-53
2021/12/19 09:35:34;;;;;;;;;8.75;5.00;;;;;21.15;42.04;102874.66;4998547;28;51455;-52
2021/12/19 09:38:01;;;;;;;;;5.00;4.75;;;;;21.16;42.15;102881.91;4996356;28;51146;-54
2021/12/19 09:40:33;;;;;;;;;5.00;4.75;;;;;21.18;41.63;102880.69;4998775;28;51583;-51
2021/12/19 09:43:03;;;;;;;;;3.75;3.75;;;;;21.23;41.47;102872.72;5014372;28;51330;-54
2021/12/19 09:45:31;;;;;;;;;4.25;3.75;;;;;21.27;41.63;102879.66;5015152;28;51363;-52
2021/12/19 09:47:56;;;;;;;;;8.00;5.00;;;;;21.28;41.28;102881.38;4996553;28;51129;-52
2021/12/19 09:50:22;;;;;;;;;6.25;5.25;;;;;21.28;41.00;102875.88;5009624;28;50974;-51
2021/12/19 09:52:49;;;;;;;;;6.25;5.00;;;;;21.28;41.09;102875.00;5011278;28;51211;-54
2021/12/19 09:55:19;;;;;;;;;6.75;5.00;;;;;21.24;41.07;102879.97;4997016;28;51290;-54
2021/12/19 09:57:46;;;;;;;;;4.75;4.25;;;;;21.20;41.75;102877.75;5006246;28;51036;-54
2021/12/19 10:00:12;;;;;;;;;6.25;6.25;;;;;21.14;41.48;102871.03;5003402;28;51420;-51
2021/12/19 10:02:37;;;;;;;;;6.00;5.50;;;;;21.11;40.92;102870.56;5002302;28;51148;-54
2021/12/19 10:05:22;;;;;;;;;4.00;4.00;;;;;21.14;41.22;102859.16;5005195;28;51128;-55
2021/12/19 10:08:03;;;;;;;;;5.00;5.00;;;;;21.17;41.47;102856.94;5011765;28;51875;-51
2021/12/19 10:11:01;;;;;;;;;3.00;3.00;;;;;21.24;41.38;102859.81;4995993;28;51854;-53
2021/12/19 10:13:33;;;;;;;;;5.00;4.00;;;;;21.28;41.21;102850.19;5004245;28;51116;-51
2021/12/19 10:15:58;;;;;;;;;2.50;2.50;;;;;21.28;41.57;102847.44;5013360;28;51108;-54
2021/12/19 10:18:24;;;;;;;;;6.75;3.00;;;;;21.25;41.63;102845.84;5009424;28;52126;-53
2021/12/19 10:20:51;;;;;;;;;3.00;3.00;;;;;21.21;41.05;102844.50;5002134;28;51153;-53
2021/12/19 10:23:18;;;;;;;;;2.75;1.75;;;;;21.19;41.34;102841.06;5007167;28;51121;-54
2021/12/19 10:25:53;;;;;;;;;3.50;3.25;;;;;21.20;41.50;102840.03;5014233;28;51337;-50
2021/12/19 10:28:18;;;;;;;;;2.75;2.75;;;;;21.26;41.17;102846.75;4996382;28;52408;-53
2021/12/19 10:30:46;;;;;;;;;3.00;3.00;;;;;21.30;41.17;102845.34;5000148;28;51077;-52
2021/12/19 10:33:17;;;;;;;;;2.75;2.00;;;;;21.31;41.44;102836.91;5000999;28;51113;-53
2021/12/19 10:35:54;;;;;;;;;1.75;1.75;;;;;21.31;41.33;102838.81;5006524;28;51116;-51
2021/12/19 10:38:25;;;;;;;;;2.75;2.75;;;;;21.27;41.51;102835.56;5003567;28;51211;-50
2021/12/19 10:40:58;;;;;;;;;5.75;4.25;;;;;21.23;42.12;102844.31;4995865;28;51479;-51
2021/12/19 10:43:28;;;;;;;;;4.00;3.00;;;;;21.19;41.97;102841.06;4997079;28;51180;-54
2021/12/19 10:46:02;;;;;;;;;3.00;3.00;;;;;21.16;41.68;102844.19;5007807;28;51080;-54
2021/12/19 10:48:32;;;;;;;;;5.00;3.75;;;;;21.18;41.81;102841.25;5011227;28;51723;-54
2021/12/19 10:50:57;;;;;;;;;4.75;3.00;;;;;21.22;41.27;102837.09;4994878;28;51563;-52
2021/12/19 10:53:29;;;;;;;;;2.50;2.50;;;;;21.28;41.71;102830.91;4998686;28;51157;-52
2021/12/19 10:55:55;;;;;;;;;2.00;2.00;;;;;21.33;41.18;102826.53;4995242;28;51121;-54
2021/12/19 10:58:23;;;;;;;;;4.75;3.00;;;;;21.36;41.31;102836.34;5008828;28;51705;-55
2021/12/19 11:01:05;;;;;;;;;3.00;2.00;;;;;21.35;41.59;102826.34;5000377;28;52254;-54
2021/12/19 11:03:35;;;;;;;;;5.25;4.00;;;;;21.30;41.46;102818.66;5002221;28;51288;-52
2021/12/19 11:06:12;;;;;;;;;6.00;4.75;;;;;21.27;41.26;102812.66;5001443;28;51216;-54
2021/12/19 11:08:37;;;;;;;;;5.00;3.75;;;;;21.27;41.06;102818.16;5011476;28;51800;-51
2021/12/19 11:11:03;;;;;;;;;4.75;3.25;;;;;21.32;41.57;102818.47;5010617;28;51173;-55
2021/12/19 11:13:28;;;;;;;;;3.25;3.00;;;;;21.32;41.42;102813.81;5006177;28;52354;-54
2021/12/19 11:15:54;;;;;;;;;5.25;4.00;;;;;21.30;41.48;102815.03;5010045;28;51145;-53
2021/12/19 11:18:19;;;;;;;;;4.00;3.00;;;;;21.28;41.70;102808.84;5005121;28;51192;-50
2021/12/19 11:20:44;;;;;;;;;2.00;2.00;;;;;21.26;41.62;102808.19;5012614;28;51122;-50
2021/12/19 11:23:10;;;;;;;;;3.25;3.25;;;;;21.26;41.36;102803.53;4995062;28;51138;-54
2021/12/19 11:25:36;;;;;;;;;4.00;4.00;;;;;21.31;41.60;102797.44;4999929;28;51353;-54
2021/12/19 11:28:04;;;;;;;;;4.00;4.00;;;;;21.37;41.26;102802.25;5012518;28;52614;-54
2021/12/19 11:30:30;;;;;;;;;4.00;3.25;;;;;21.40;41.23;102790.84;5003864;28;51337;-51
2021/12/19 11:33:11;;;;;;;;;4.00;3.50;;;;;21.44;41.30;102786.69;5005961;28;51226;-50
2021/12/19 11:35:43;;;;;;;;;6.00;4.00;;;;;21.51;40.91;102778.53;5007903;28;51297;-55
2021/12/19 11:38:11;;;;;;;;;4.75;4.75;;;;;21.56;41.73;102778.84;5008653;28;51120;-54
2021/12/19 11:40:38;;;;;;;;;6.00;5.75;;;;;21.62;41.86;102778.13;4997456;28;51573;-55
2021/12/19 11:43:05;;;;;;;;;6.00;5.00;;;;;21.71;41.74;102774.25;5011431;28;51370;-53
2021/12/19 11:48:23;;;;;;;;;4.75;4.75;;;;;21.76;41.25;102762.66;4996635;28;52385;-55
2021/12/19 11:50:50;;;;;;;;;6.00;6.00;;;;;21.71;41.61;102754.09;4996292;28;51424;-53
2021/12/19 11:53:15;;;;;;;;;6.75;6.75;;;;;21.66;41.28;102751.88;5013899;28;51175;-54
2021/12/19 11:55:46;;;;;;;;;7.67;6.33;;;;;21.64;41.58;102753.97;5016773;28;51170;-55
2021/12/19 11:58:11;;;;;;;;;5.50;5.25;;;;;21.64;41.76;102748.44;5003315;28;51409;-55
2021/12/19 12:00:57;;;;;;;;;5.25;4.25;;;;;21.69;41.50;102751.53;5007641;28;51154;-54
2021/12/19 12:03:28;;;;;;;;;5.75;4.25;;;;;21.75;41.49;102733.38;5015238;28;51175;-54
2021/12/19 12:06:16;;;;;;;;;7.00;5.50;;;;;21.79;42.40;102729.22;5015045;28;50940;-53
2021/12/19 12:09:20;;;;;;;;;7.25;5.25;;;;;21.81;42.18;102732.63;5004034;28;53548;-57
2021/12/19 12:12:04;;;;;;;;;7.50;7.00;;;;;21.80;42.25;102728.16;5006428;28;51185;-53
2021/12/19 12:14:34;;;;;;;;;6.00;5.50;;;;;21.81;41.90;102729.88;5023787;28;51088;-54
2021/12/19 12:17:06;;;;;;;;;7.25;6.25;;;;;21.80;42.27;102719.88;5010721;28;51317;-56
2021/12/19 12:19:55;;;;;;;;;6.50;4.75;;;;;21.81;41.83;102716.94;5009596;28;52846;-55
2021/12/19 12:22:53;;;;;;;;;6.00;6.00;;;;;21.87;41.89;102718.06;5004115;28;50973;-56
2021/12/19 12:25:24;;;;;;;;;4.75;4.00;;;;;21.93;41.67;102710.97;5012862;28;51282;-55
2021/12/19 12:27:56;;;;;;;;;5.50;5.50;;;;;22.02;42.32;102710.69;5016841;28;51181;-56
2021/12/19 12:30:28;;;;;;;;;6.50;6.50;;;;;22.06;42.67;102705.66;5013359;28;51648;-56